Time;durP1;ratioP1;P1;durP2;ratioP2;P2;SDS_P1;SDS_P2;PMS_P1;PMS_P2;Temp;Humidity;BMP_temperature;BMP_pressure;BME280_temperature;BME280_humidity;BME280_pressure;Samples;Min_cycle;Max_cycle;Signal;HPM_P1;HPM_P2
2023/12/01 00:01:37;;;;;;;1.40;1.30;;;0.60;99.90;;;;;;5114300;28;20105;-69
2023/12/01 00:04:03;;;;;;;3.17;2.97;;;0.60;99.90;;;;;;5113833;28;20352;-69
2023/12/01 00:06:29;;;;;;;1.30;1.20;;;0.60;99.90;;;;;;5117120;28;20140;-69
2023/12/01 00:08:54;;;;;;;2.85;2.67;;;0.60;99.90;;;;;;5117923;27;20043;-68
2023/12/01 00:11:20;;;;;;;2.65;2.45;;;0.50;99.90;;;;;;5117636;28;20495;-69
2023/12/01 00:13:46;;;;;;;1.30;1.20;;;0.60;99.90;;;;;;5117819;28;20028;-69
2023/12/01 00:16:12;;;;;;;1.90;1.63;;;;;;;;;;5117417;28;20043;-69
2023/12/01 00:18:37;;;;;;;4.43;3.80;;;0.60;99.90;;;;;;5117409;28;20056;-69
2023/12/01 00:21:03;;;;;;;1.20;1.10;;;0.60;99.90;;;;;;5118223;28;20117;-68
2023/12/01 00:23:30;;;;;;;2.45;2.30;;;0.50;99.90;;;;;;5117264;28;20047;-68
2023/12/01 00:25:56;;;;;;;1.40;1.30;;;0.50;99.90;;;;;;5117627;28;20036;-69
2023/12/01 00:28:22;;;;;;;1.20;1.10;;;0.50;99.90;;;;;;5117492;28;20057;-69
2023/12/01 00:30:48;;;;;;;1.20;1.10;;;0.50;99.90;;;;;;5117275;28;20035;-69
2023/12/01 00:33:14;;;;;;;5.38;3.58;;;0.50;99.90;;;;;;5117311;28;20050;-69
2023/12/01 00:35:39;;;;;;;1.27;1.17;;;0.50;99.90;;;;;;5150600;27;20122;-68
2023/12/01 00:38:05;;;;;;;1.67;1.58;;;0.50;99.90;;;;;;5117584;28;20047;-68
2023/12/01 00:40:31;;;;;;;1.20;1.10;;;0.60;99.90;;;;;;5117292;28;20041;-69
2023/12/01 00:42:57;;;;;;;1.25;1.15;;;0.50;99.90;;;;;;5117378;28;20100;-68
2023/12/01 00:45:23;;;;;;;1.23;1.13;;;0.50;99.90;;;;;;5116962;28;20035;-69
2023/12/01 00:47:48;;;;;;;1.30;1.20;;;0.50;99.90;;;;;;5117088;28;20060;-69
2023/12/01 00:50:14;;;;;;;1.40;1.30;;;0.50;99.90;;;;;;5117173;28;20047;-69
2023/12/01 00:52:39;;;;;;;1.55;1.42;;;0.60;99.90;;;;;;5117015;28;20035;-69
2023/12/01 00:55:05;;;;;;;1.30;1.20;;;0.50;99.90;;;;;;5116908;28;20047;-69
2023/12/01 00:57:31;;;;;;;1.40;1.30;;;0.50;99.90;;;;;;5117541;28;20116;-69
2023/12/01 00:59:57;;;;;;;1.30;1.20;;;0.50;99.90;;;;;;5116875;28;20447;-68
2023/12/01 01:02:22;;;;;;;1.27;1.17;;;0.50;99.90;;;;;;5116835;28;20380;-69
2023/12/01 01:04:48;;;;;;;3.13;2.92;;;0.40;99.90;;;;;;5116877;28;20391;-69
2023/12/01 01:07:13;;;;;;;1.20;1.10;;;0.40;99.90;;;;;;5116729;28;20042;-69
2023/12/01 01:09:39;;;;;;;1.50;1.40;;;0.40;99.90;;;;;;5116776;28;20040;-68
2023/12/01 01:12:05;;;;;;;1.33;1.23;;;0.40;99.90;;;;;;5116681;28;20483;-69
2023/12/01 01:14:30;;;;;;;1.48;1.38;;;0.30;99.90;;;;;;5116485;28;20035;-69
2023/12/01 01:16:56;;;;;;;1.30;1.20;;;0.30;99.90;;;;;;5116235;28;20181;-69
2023/12/01 01:19:22;;;;;;;6.57;5.47;;;0.30;99.90;;;;;;5116623;28;20051;-69
2023/12/01 01:21:48;;;;;;;1.45;1.35;;;0.30;99.90;;;;;;5116421;28;20075;-69
2023/12/01 01:24:13;;;;;;;1.30;1.20;;;0.30;99.90;;;;;;5116444;28;20040;-69
2023/12/01 01:26:39;;;;;;;2.10;2.00;;;0.30;99.90;;;;;;5116223;28;20045;-69
2023/12/01 01:29:05;;;;;;;1.50;1.40;;;0.30;99.90;;;;;;5116933;27;20047;-69
2023/12/01 01:31:30;;;;;;;10.93;5.78;;;0.40;99.90;;;;;;5115981;28;20376;-68
2023/12/01 01:33:56;;;;;;;1.50;1.40;;;0.20;99.90;;;;;;5116208;28;20040;-69
2023/12/01 01:36:21;;;;;;;1.40;1.30;;;0.10;99.90;;;;;;5116877;28;20031;-69
2023/12/01 01:38:47;;;;;;;1.50;1.40;;;0.10;99.90;;;;;;5116206;28;20397;-69
2023/12/01 01:41:12;;;;;;;1.45;1.35;;;0.10;99.90;;;;;;5116291;28;20058;-69
2023/12/01 01:43:38;;;;;;;1.67;1.58;;;0.10;99.90;;;;;;5116106;28;20047;-68
2023/12/01 01:46:10;;;;;;;1.40;1.30;;;0.10;99.90;;;;;;5115937;28;20424;-69
2023/12/01 01:48:37;;;;;;;2.45;1.65;;;0.20;99.90;;;;;;5116013;28;20042;-69
2023/12/01 01:51:05;;;;;;;1.63;1.52;;;0.20;99.90;;;;;;5115767;28;20047;-69
2023/12/01 01:53:31;;;;;;;1.20;1.10;;;0.20;99.90;;;;;;5115659;28;20039;-69
2023/12/01 01:55:58;;;;;;;1.42;1.33;;;0.20;99.90;;;;;;5115834;28;20042;-69
2023/12/01 01:58:24;;;;;;;1.23;1.13;;;0.20;99.90;;;;;;5115493;28;20516;-69
2023/12/01 02:00:51;;;;;;;1.42;1.33;;;0.20;99.90;;;;;;5115789;28;20047;-69
2023/12/01 02:03:18;;;;;;;1.30;1.20;;;0.10;99.90;;;;;;5115718;28;20050;-69
2023/12/01 02:05:47;;;;;;;1.30;1.20;;;0.10;99.90;;;;;;5115959;28;20092;-69
2023/12/01 02:08:27;;;;;;;1.30;1.20;;;0.10;99.90;;;;;;5115587;28;20032;-69
2023/12/01 02:10:54;;;;;;;2.95;2.30;;;0.10;99.90;;;;;;5115247;28;20039;-69
2023/12/01 02:13:21;;;;;;;1.30;1.20;;;0.10;99.90;;;;;;5115441;28;20047;-69
2023/12/01 02:15:48;;;;;;;1.30;1.20;;;0.00;99.90;;;;;;5115471;28;20042;-69
2023/12/01 02:18:24;;;;;;;1.20;1.10;;;0.00;99.90;;;;;;5115219;28;20123;-69
2023/12/01 02:20:55;;;;;;;1.20;1.10;;;0.00;99.90;;;;;;5115585;28;20477;-69
2023/12/01 02:23:22;;;;;;;1.30;1.20;;;0.00;99.90;;;;;;5115450;28;20044;-69
2023/12/01 02:25:48;;;;;;;1.20;1.10;;;0.00;99.90;;;;;;5115213;28;20568;-69
2023/12/01 02:28:14;;;;;;;1.60;1.40;;;0.00;99.90;;;;;;5115215;28;20130;-69
2023/12/01 02:30:43;;;;;;;1.20;1.10;;;0.30;99.90;;;;;;5115185;28;20074;-69
2023/12/01 02:33:19;;;;;;;2.47;2.30;;;0.00;99.90;;;;;;5115631;28;20067;-69
2023/12/01 02:35:53;;;;;;;1.30;1.20;;;-0.20;99.90;;;;;;5115124;28;20036;-69
2023/12/01 02:38:19;;;;;;;1.30;1.20;;;-0.30;99.90;;;;;;5114990;28;20039;-69
2023/12/01 02:40:54;;;;;;;1.20;1.10;;;-0.30;99.90;;;;;;5114957;28;20119;-68
2023/12/01 02:43:20;;;;;;;1.50;1.40;;;-0.30;99.90;;;;;;5115005;28;20043;-68
2023/12/01 02:45:46;;;;;;;1.50;1.40;;;-0.30;99.90;;;;;;5115192;28;20032;-69
2023/12/01 02:48:12;;;;;;;1.33;1.23;;;-0.30;99.90;;;;;;5114858;28;20063;-69
2023/12/01 02:50:38;;;;;;;1.65;1.55;;;-0.30;99.90;;;;;;5114748;28;20423;-69
2023/12/01 02:53:05;;;;;;;1.40;1.30;;;-0.30;99.90;;;;;;5115082;28;20115;-69
2023/12/01 02:55:30;;;;;;;1.20;1.10;;;-0.30;99.90;;;;;;5114877;28;20401;-69
2023/12/01 02:57:56;;;;;;;1.60;1.50;;;-0.40;99.90;;;;;;5114572;28;20035;-69
2023/12/01 03:00:22;;;;;;;1.60;1.50;;;-0.30;99.90;;;;;;5114967;28;20460;-69
2023/12/01 03:02:50;;;;;;;2.08;1.98;;;-0.30;99.90;;;;;;5114695;28;20050;-69
2023/12/01 03:05:16;;;;;;;2.22;2.13;;;-0.30;99.90;;;;;;5114523;28;20122;-69
2023/12/01 03:07:42;;;;;;;1.40;1.30;;;-0.30;99.90;;;;;;5114790;28;20378;-69
2023/12/01 03:10:09;;;;;;;1.27;1.17;;;-0.40;99.90;;;;;;5114935;28;20039;-69
2023/12/01 03:12:39;;;;;;;1.58;1.48;;;-0.40;99.90;;;;;;5114651;28;20108;-69
2023/12/01 03:15:07;;;;;;;1.30;1.20;;;-0.50;99.90;;;;;;5114117;28;20497;-70
2023/12/01 03:17:33;;;;;;;1.40;1.30;;;-0.50;99.90;;;;;;5114472;28;20058;-69
2023/12/01 03:19:58;;;;;;;1.30;1.20;;;-0.50;99.90;;;;;;5113925;28;20056;-69
2023/12/01 03:22:25;;;;;;;1.40;1.30;;;-0.50;99.90;;;;;;5114801;28;20046;-69
2023/12/01 03:24:53;;;;;;;1.40;1.30;;;-0.60;99.90;;;;;;5114509;28;20043;-69
2023/12/01 03:27:25;;;;;;;3.28;1.75;;;-0.60;99.90;;;;;;5114661;28;20051;-69
2023/12/01 03:29:52;;;;;;;1.30;1.20;;;-0.70;99.90;;;;;;5114450;28;20470;-69
2023/12/01 03:32:18;;;;;;;2.30;2.10;;;-0.70;99.90;;;;;;5114231;28;20114;-69
2023/12/01 03:34:44;;;;;;;1.50;1.40;;;-0.70;99.90;;;;;;5114101;28;20076;-69
2023/12/01 03:37:09;;;;;;;6.32;1.40;;;-0.70;99.90;;;;;;5114304;28;20047;-69
2023/12/01 03:39:35;;;;;;;1.30;1.20;;;-0.80;99.90;;;;;;5115000;28;20462;-69
2023/12/01 03:42:00;;;;;;;1.65;1.52;;;-0.90;99.90;;;;;;5121219;28;20082;-69
2023/12/01 03:44:26;;;;;;;1.50;1.40;;;-0.90;99.90;;;;;;5120904;28;20038;-69
2023/12/01 03:46:52;;;;;;;1.30;1.20;;;-0.90;99.90;;;;;;5120826;27;20054;-69
2023/12/01 03:49:18;;;;;;;1.50;1.40;;;-1.00;99.90;;;;;;5120828;28;20078;-69
2023/12/01 03:51:43;;;;;;;1.40;1.30;;;-1.00;99.90;;;;;;5120909;27;20031;-69
2023/12/01 03:54:09;;;;;;;1.40;1.30;;;-1.00;99.90;;;;;;5120911;28;20038;-69
2023/12/01 03:56:37;;;;;;;1.40;1.30;;;-1.00;99.90;;;;;;5120531;28;20118;-69
2023/12/01 03:59:09;;;;;;;1.40;1.30;;;-1.10;99.90;;;;;;5120947;27;20081;-69
2023/12/01 04:01:36;;;;;;;1.40;1.30;;;-1.10;99.90;;;;;;5120638;27;20040;-69
2023/12/01 04:04:01;;;;;;;1.42;1.33;;;-1.00;99.90;;;;;;5120683;27;20044;-69
2023/12/01 04:06:27;;;;;;;1.40;1.30;;;-1.00;99.90;;;;;;5120734;28;20528;-69
2023/12/01 04:08:53;;;;;;;1.30;1.20;;;-1.00;99.90;;;;;;5120657;28;20046;-68
2023/12/01 04:11:19;;;;;;;1.40;1.30;;;-1.10;99.90;;;;;;5121059;27;20040;-69
2023/12/01 04:13:45;;;;;;;1.40;1.30;;;-1.00;99.90;;;;;;5120608;28;20336;-69
2023/12/01 04:16:10;;;;;;;1.63;1.52;;;-1.10;99.90;;;;;;5120767;28;20428;-69
2023/12/01 04:18:36;;;;;;;1.50;1.40;;;-1.10;99.90;;;;;;5120477;28;20048;-69
2023/12/01 04:21:08;;;;;;;1.40;1.30;;;-1.10;99.90;;;;;;5121107;27;20075;-69
2023/12/01 04:23:34;;;;;;;1.40;1.30;;;-1.00;99.90;;;;;;5121192;27;20055;-68
2023/12/01 04:26:00;;;;;;;1.95;1.50;;;-1.00;99.90;;;;;;5120640;27;20031;-69
2023/12/01 04:28:26;;;;;;;1.50;1.40;;;-1.00;99.90;;;;;;5120536;27;20126;-69
2023/12/01 04:30:52;;;;;;;1.83;1.73;;;-1.10;99.90;;;;;;5120428;27;20417;-68
2023/12/01 04:33:18;;;;;;;1.40;1.30;;;-1.10;99.90;;;;;;5120240;27;20040;-69
2023/12/01 04:35:43;;;;;;;1.50;1.40;;;-1.10;99.90;;;;;;5120560;28;20043;-69
2023/12/01 04:38:09;;;;;;;2.65;2.47;;;-1.10;99.90;;;;;;5120425;28;20036;-69
2023/12/01 04:40:36;;;;;;;1.40;1.30;;;-1.20;99.90;;;;;;5120392;27;20122;-68
2023/12/01 04:43:03;;;;;;;1.42;1.33;;;-1.20;99.90;;;;;;5120348;27;20045;-68
2023/12/01 04:45:31;;;;;;;1.50;1.40;;;-1.10;99.90;;;;;;5120354;28;20039;-69
2023/12/01 04:47:57;;;;;;;3.97;3.75;;;-1.20;99.90;;;;;;5120512;27;20375;-69
2023/12/01 04:50:29;;;;;;;1.83;1.73;;;-1.20;99.90;;;;;;5120300;28;20040;-69
2023/12/01 04:52:56;;;;;;;1.48;1.38;;;-1.20;99.90;;;;;;5116294;27;20043;-69
2023/12/01 04:55:25;;;;;;;1.40;1.30;;;-1.20;99.90;;;;;;5116943;28;20075;-69
2023/12/01 04:57:50;;;;;;;1.40;1.30;;;-1.10;99.90;;;;;;5117008;28;20118;-69
2023/12/01 05:00:21;;;;;;;1.50;1.40;;;-1.10;99.90;;;;;;5116807;28;20553;-68
2023/12/01 05:02:51;;;;;;;1.48;1.38;;;-1.10;99.90;;;;;;5117219;28;20418;-69
2023/12/01 05:05:22;;;;;;;1.40;1.30;;;-1.10;99.90;;;;;;5116871;28;20043;-69
2023/12/01 05:07:52;;;;;;;1.40;1.30;;;-1.20;99.90;;;;;;5116630;28;20048;-69
2023/12/01 05:10:22;;;;;;;1.50;1.35;;;-1.20;99.90;;;;;;5117193;28;20059;-69
2023/12/01 05:12:50;;;;;;;1.88;1.77;;;-1.20;99.90;;;;;;5116504;28;20075;-69
2023/12/01 05:15:21;;;;;;;1.50;1.40;;;-1.30;99.90;;;;;;5116597;28;20039;-69
2023/12/01 05:18:00;;;;;;;5.68;4.85;;;-1.30;99.90;;;;;;5116552;28;20044;-68
2023/12/01 05:20:27;;;;;;;1.40;1.30;;;-1.40;99.90;;;;;;5116734;28;20445;-69
2023/12/01 05:23:00;;;;;;;1.23;1.13;;;-1.40;99.90;;;;;;5116215;28;20066;-68
2023/12/01 05:25:27;;;;;;;1.65;1.55;;;-1.40;99.90;;;;;;5116624;28;20043;-69
2023/12/01 05:27:55;;;;;;;1.30;1.20;;;-1.40;99.90;;;;;;5116425;28;20191;-69
2023/12/01 05:30:24;;;;;;;1.30;1.20;;;-1.40;99.90;;;;;;5116384;28;20035;-68
2023/12/01 05:32:51;;;;;;;1.40;1.30;;;-0.70;99.90;;;;;;5116618;28;20413;-69
2023/12/01 05:35:17;;;;;;;1.55;1.45;;;-1.50;99.90;;;;;;5116356;28;20046;-69
2023/12/01 05:37:49;;;;;;;1.50;1.40;;;-1.60;99.90;;;;;;5116198;28;20047;-69
2023/12/01 05:40:24;;;;;;;1.40;1.30;;;-1.50;99.90;;;;;;5116038;28;20122;-68
2023/12/01 05:42:52;;;;;;;1.40;1.30;;;-1.50;99.90;;;;;;5116148;28;20039;-69
2023/12/01 05:45:20;;;;;;;1.98;1.88;;;-1.50;99.90;;;;;;5116044;28;20108;-69
2023/12/01 05:47:48;;;;;;;1.40;1.30;;;-1.60;99.90;;;;;;5116001;28;20035;-69
2023/12/01 05:50:21;;;;;;;1.30;1.20;;;-0.30;99.90;;;;;;5115942;28;20039;-69
2023/12/01 05:52:48;;;;;;;1.67;1.58;;;-1.20;99.90;;;;;;5115944;28;20114;-69
2023/12/01 05:55:14;;;;;;;;;;;-1.60;99.90;;;;;;5116340;28;20180;-69
2023/12/01 05:57:44;;;;;;;1.50;1.40;;;-1.70;99.90;;;;;;5116151;28;19915;-68
2023/12/01 06:00:12;;;;;;;1.30;1.20;;;-1.70;99.90;;;;;;5115839;28;20036;-69
2023/12/01 06:02:40;;;;;;;1.30;1.20;;;-1.70;99.90;;;;;;5115350;28;20295;-69
2023/12/01 06:05:06;;;;;;;1.65;1.55;;;-1.80;99.90;;;;;;5115598;28;20086;-69
2023/12/01 06:07:32;;;;;;;1.40;1.30;;;-1.80;99.90;;;;;;5116131;28;20039;-69
2023/12/01 06:09:58;;;;;;;1.60;1.50;;;-1.80;99.90;;;;;;5115880;28;20050;-69
2023/12/01 06:12:24;;;;;;;1.40;1.30;;;-1.80;99.90;;;;;;5115913;28;20046;-69
2023/12/01 06:14:49;;;;;;;1.50;1.40;;;-1.40;99.90;;;;;;5115415;28;20535;-69
2023/12/01 06:17:15;;;;;;;1.40;1.30;;;-1.80;99.90;;;;;;5115357;28;20089;-69
2023/12/01 06:19:41;;;;;;;1.30;1.20;;;-1.50;99.90;;;;;;5115892;28;20078;-69
2023/12/01 06:22:07;;;;;;;1.20;1.10;;;-1.80;99.90;;;;;;5115031;28;20459;-70
2023/12/01 06:24:33;;;;;;;1.50;1.40;;;-1.80;99.90;;;;;;5115074;28;20546;-70
2023/12/01 06:27:03;;;;;;;1.50;1.40;;;-1.80;99.90;;;;;;5115700;28;20067;-70
2023/12/01 06:29:29;;;;;;;1.30;1.20;;;-1.80;99.90;;;;;;5115398;28;20044;-69
2023/12/01 06:31:55;;;;;;;1.55;1.45;;;-1.80;99.90;;;;;;5115212;28;20520;-69
2023/12/01 06:34:20;;;;;;;1.40;1.30;;;-1.80;99.90;;;;;;5115034;28;20028;-70
2023/12/01 06:36:46;;;;;;;3.75;3.55;;;-1.80;99.90;;;;;;5114974;28;20043;-69
2023/12/01 06:39:12;;;;;;;1.45;1.35;;;-1.80;99.90;;;;;;5115432;28;20035;-70
2023/12/01 06:41:38;;;;;;;1.42;1.33;;;-1.80;99.90;;;;;;5114668;28;20491;-70
2023/12/01 06:44:05;;;;;;;1.77;1.67;;;-1.80;99.90;;;;;;5114910;28;20123;-69
2023/12/01 06:46:31;;;;;;;1.40;1.30;;;-1.90;99.90;;;;;;5114846;28;20047;-70
2023/12/01 06:48:57;;;;;;;1.58;1.48;;;-2.00;99.90;;;;;;5114910;28;20092;-69
2023/12/01 06:51:22;;;;;;;1.42;1.33;;;-0.80;99.90;;;;;;5115219;28;20463;-69
2023/12/01 06:53:48;;;;;;;1.40;1.30;;;-2.00;99.90;;;;;;5114643;28;20475;-70
2023/12/01 06:56:13;;;;;;;1.63;1.52;;;-2.10;99.90;;;;;;5115238;28;20047;-70
2023/12/01 06:58:39;;;;;;;1.30;1.20;;;-2.10;99.90;;;;;;5114397;28;20476;-70
2023/12/01 07:01:05;;;;;;;1.52;1.42;;;-2.10;99.90;;;;;;5115108;28;20071;-72
2023/12/01 07:03:31;;;;;;;1.40;1.30;;;-2.20;99.90;;;;;;5114619;28;20467;-70
2023/12/01 07:05:56;;;;;;;1.50;1.40;;;-2.20;99.90;;;;;;5114544;28;20035;-70
2023/12/01 07:08:22;;;;;;;1.60;1.50;;;-2.20;99.90;;;;;;5114538;28;20035;-74
2023/12/01 07:10:47;;;;;;;1.40;1.30;;;-2.20;99.90;;;;;;5114660;28;20096;-70
2023/12/01 07:13:13;;;;;;;2.67;2.47;;;-2.70;99.90;;;;;;5114226;28;20378;-70
2023/12/01 07:15:39;;;;;;;1.50;1.40;;;-2.30;99.90;;;;;;5113622;28;20086;-70
2023/12/01 07:18:05;;;;;;;1.50;1.40;;;-1.60;99.90;;;;;;5114116;28;20516;-70
2023/12/01 07:20:33;;;;;;;1.50;1.40;;;-2.10;99.90;;;;;;5114341;28;20047;-70
2023/12/01 07:22:59;;;;;;;1.40;1.30;;;-2.30;99.90;;;;;;5114629;28;20277;-70
2023/12/01 07:25:25;;;;;;;1.60;1.50;;;-2.30;99.90;;;;;;5114670;28;20073;-70
2023/12/01 07:27:57;;;;;;;1.60;1.50;;;-2.30;99.90;;;;;;5114154;28;20092;-70
2023/12/01 07:30:23;;;;;;;1.40;1.30;;;-2.20;99.90;;;;;;5114072;28;20136;-70
2023/12/01 07:32:49;;;;;;;1.60;1.50;;;-2.30;99.90;;;;;;5114227;28;20123;-71
2023/12/01 07:35:16;;;;;;;1.50;1.40;;;-2.30;99.90;;;;;;5114026;28;20036;-71
2023/12/01 07:37:46;;;;;;;1.50;1.40;;;-2.30;99.90;;;;;;5113886;28;20490;-70
2023/12/01 07:40:19;;;;;;;12.00;11.15;;;-2.30;99.90;;;;;;5113914;28;20043;-70
2023/12/01 07:42:45;;;;;;;1.50;1.40;;;-2.40;99.90;;;;;;5114498;28;20089;-70
2023/12/01 07:45:13;;;;;;;1.45;1.35;;;-2.40;99.90;;;;;;5113018;28;20374;-69
2023/12/01 07:47:39;;;;;;;1.40;1.30;;;-2.40;99.90;;;;;;5113957;28;20090;-70
2023/12/01 07:50:05;;;;;;;1.40;1.30;;;-2.30;99.90;;;;;;5113707;28;20070;-69
2023/12/01 07:52:32;;;;;;;4.53;4.23;;;-2.40;99.90;;;;;;5114201;28;20035;-70
2023/12/01 07:54:58;;;;;;;1.40;1.30;;;-1.20;99.90;;;;;;5113978;28;20380;-69
2023/12/01 07:57:23;;;;;;;1.50;1.40;;;-2.40;99.90;;;;;;5114111;28;20467;-71
2023/12/01 07:59:49;;;;;;;1.60;1.50;;;-2.50;99.90;;;;;;5113900;28;20126;-70
2023/12/01 08:02:15;;;;;;;1.53;1.43;;;-2.50;99.90;;;;;;5113683;28;20038;-70
2023/12/01 08:04:40;;;;;;;1.50;1.40;;;-2.50;99.90;;;;;;5114079;28;20100;-71
2023/12/01 08:07:07;;;;;;;1.30;1.20;;;-2.50;99.90;;;;;;5112715;28;20085;-70
2023/12/01 08:09:33;;;;;;;1.40;1.30;;;-2.50;99.90;;;;;;5113906;28;20074;-71
2023/12/01 08:11:59;;;;;;;1.50;1.40;;;-2.40;99.90;;;;;;5113499;28;20075;-71
2023/12/01 08:14:25;;;;;;;1.77;1.67;;;-2.40;99.90;;;;;;5114088;28;20040;-70
2023/12/01 08:16:51;;;;;;;1.50;1.40;;;-2.40;99.90;;;;;;5113939;28;20375;-71
2023/12/01 08:19:17;;;;;;;2.55;1.70;;;-2.40;99.90;;;;;;5113671;28;20660;-70
2023/12/01 08:21:44;;;;;;;1.60;1.50;;;-2.40;99.90;;;;;;5113747;28;20048;-71
2023/12/01 08:24:10;;;;;;;1.50;1.40;;;-2.30;99.90;;;;;;5113740;28;20365;-69
2023/12/01 08:26:37;;;;;;;1.60;1.50;;;-2.30;99.90;;;;;;5115414;28;20281;-70
2023/12/01 08:29:02;;;;;;;;;;;-2.30;99.90;;;;;;5118159;28;20058;-72
2023/12/01 08:31:28;;;;;;;1.40;1.30;;;-2.30;99.90;;;;;;5117509;28;20270;-71
2023/12/01 08:33:54;;;;;;;1.40;1.30;;;-2.30;99.90;;;;;;5117624;28;20126;-71
2023/12/01 08:36:19;;;;;;;1.60;1.50;;;-1.80;99.90;;;;;;5117447;28;20035;-72
2023/12/01 08:38:45;;;;;;;1.50;1.40;;;-2.30;99.90;;;;;;5117619;28;20483;-70
2023/12/01 08:41:11;;;;;;;1.50;1.40;;;-2.30;99.90;;;;;;5117318;28;20372;-72
2023/12/01 08:43:36;;;;;;;1.70;1.60;;;-2.30;99.90;;;;;;5117431;28;20039;-72
2023/12/01 08:46:02;;;;;;;1.75;1.65;;;-2.20;99.90;;;;;;5117239;28;20036;-70
2023/12/01 08:48:28;;;;;;;1.60;1.50;;;-2.10;99.90;;;;;;5115961;28;20051;-70
2023/12/01 08:50:54;;;;;;;1.50;1.40;;;-2.20;99.90;;;;;;5116478;28;20043;-71
2023/12/01 08:53:22;;;;;;;1.50;1.40;;;-2.20;99.90;;;;;;5117141;28;20292;-70
2023/12/01 08:55:48;;;;;;;1.50;1.40;;;-2.20;99.90;;;;;;5115770;28;20056;-70
2023/12/01 08:58:14;;;;;;;1.55;1.45;;;-2.10;99.90;;;;;;5117021;28;20035;-70
2023/12/01 09:00:40;;;;;;;1.40;1.30;;;-2.10;99.90;;;;;;5116864;28;20055;-72
2023/12/01 09:03:06;;;;;;;2.05;1.95;;;-2.00;99.90;;;;;;5116832;28;20039;-71
2023/12/01 09:05:35;;;;;;;1.50;1.40;;;-2.00;99.90;;;;;;5116964;28;20035;-70
2023/12/01 09:08:04;;;;;;;7.75;4.50;;;-2.00;99.90;;;;;;5116696;28;20356;-77
2023/12/01 09:10:30;;;;;;;1.50;1.40;;;-1.20;99.90;;;;;;5117239;28;20504;-70
2023/12/01 09:12:55;;;;;;;1.80;1.70;;;-2.00;99.90;;;;;;5116861;28;20048;-71
2023/12/01 09:15:21;;;;;;;1.50;1.40;;;-1.90;99.90;;;;;;5116742;28;20043;-72
2023/12/01 09:17:47;;;;;;;2.58;2.40;;;-1.90;99.90;;;;;;5116934;28;20057;-75
2023/12/01 09:20:12;;;;;;;1.50;1.40;;;-1.90;99.90;;;;;;5117110;28;20050;-70
2023/12/01 09:22:38;;;;;;;1.50;1.40;;;-1.90;99.90;;;;;;5116807;28;20039;-71
2023/12/01 09:25:04;;;;;;;1.40;1.30;;;-1.90;99.90;;;;;;5116621;28;20044;-70
2023/12/01 09:27:30;;;;;;;7.77;7.20;;;-1.90;99.90;;;;;;5116448;28;20044;-75
2023/12/01 09:29:55;;;;;;;1.40;1.30;;;-1.70;99.90;;;;;;5116660;28;20092;-73
2023/12/01 09:32:21;;;;;;;1.52;1.42;;;-1.90;99.90;;;;;;5116838;28;20036;-71
2023/12/01 09:34:47;;;;;;;1.45;1.35;;;-1.90;99.90;;;;;;5116373;28;20043;-71
2023/12/01 09:37:13;;;;;;;1.50;1.40;;;-2.00;99.90;;;;;;5116523;28;20043;-71
2023/12/01 09:39:39;;;;;;;1.40;1.30;;;-0.90;99.90;;;;;;5116158;28;20546;-70
2023/12/01 09:42:06;;;;;;;8.63;7.97;;;-1.90;99.90;;;;;;5116553;28;20074;-70
2023/12/01 09:44:32;;;;;;;1.50;1.40;;;-1.90;99.90;;;;;;5114850;28;20047;-71
2023/12/01 09:47:00;;;;;;;1.48;1.38;;;-1.90;99.90;;;;;;5116222;28;20036;-70
2023/12/01 09:49:32;;;;;;;1.60;1.50;;;-1.80;99.90;;;;;;5116070;28;20055;-70
2023/12/01 09:51:58;;;;;;;1.40;1.30;;;-1.80;99.90;;;;;;5116522;28;20047;-71
2023/12/01 09:54:23;;;;;;;1.50;1.40;;;-1.70;99.90;;;;;;5116159;28;20455;-71
2023/12/01 09:56:51;;;;;;;1.50;1.40;;;-1.70;99.90;;;;;;5114650;28;20027;-70
2023/12/01 09:59:18;;;;;;;1.50;1.40;;;-1.60;99.90;;;;;;5115945;28;20047;-70
2023/12/01 10:01:44;;;;;;;1.40;1.30;;;-1.30;99.90;;;;;;5115728;28;20050;-70
2023/12/01 10:04:10;;;;;;;1.50;1.40;;;-1.60;99.90;;;;;;5116068;28;20130;-70
2023/12/01 10:06:39;;;;;;;1.50;1.40;;;-1.60;99.90;;;;;;5115770;28;20475;-70
2023/12/01 10:09:09;;;;;;;1.73;1.58;;;-1.60;99.90;;;;;;5116005;28;20032;-70
2023/12/01 10:11:36;;;;;;;1.40;1.30;;;-0.30;99.90;;;;;;5115397;28;20448;-71
2023/12/01 10:14:07;;;;;;;1.40;1.30;;;-1.60;99.90;;;;;;5115145;28;20460;-71
2023/12/01 10:16:38;;;;;;;2.85;1.40;;;-1.60;99.90;;;;;;5116192;28;20353;-72
2023/12/01 10:19:05;;;;;;;1.77;1.67;;;-1.60;99.90;;;;;;5115772;28;20386;-71
2023/12/01 10:21:43;;;;;;;1.50;1.40;;;-1.50;99.90;;;;;;5115481;28;20087;-71
2023/12/01 10:24:27;;;;;;;1.40;1.30;;;-1.50;99.90;;;;;;5115406;28;20153;-71
2023/12/01 10:26:55;;;;;;;1.52;1.42;;;-1.40;99.90;;;;;;5115028;28;20481;-71
2023/12/01 10:29:27;;;;;;;1.40;1.30;;;-1.50;99.90;;;;;;5115336;28;20036;-71
2023/12/01 10:31:53;;;;;;;2.65;1.58;;;-1.40;99.90;;;;;;5115291;28;20043;-71
2023/12/01 10:34:19;;;;;;;1.40;1.30;;;-1.50;99.90;;;;;;5115270;28;20061;-72
2023/12/01 10:36:45;;;;;;;2.15;2.05;;;-1.40;99.90;;;;;;5115149;28;20032;-73
2023/12/01 10:39:16;;;;;;;1.50;1.40;;;-1.40;99.90;;;;;;5112736;28;20483;-70
2023/12/01 10:41:44;;;;;;;1.50;1.40;;;-1.30;99.90;;;;;;5114849;28;20122;-72
2023/12/01 10:44:16;;;;;;;1.50;1.40;;;-1.30;99.90;;;;;;5114878;28;20078;-71
2023/12/01 10:46:47;;;;;;;1.40;1.30;;;-1.30;99.90;;;;;;5114910;28;20043;-70
2023/12/01 10:49:17;;;;;;;1.30;1.20;;;-1.20;99.90;;;;;;5114399;28;20092;-70
2023/12/01 10:51:44;;;;;;;1.38;1.27;;;-1.20;99.90;;;;;;5114428;28;20036;-74
2023/12/01 10:54:11;;;;;;;1.70;1.60;;;-1.10;99.90;;;;;;5114691;28;20086;-72
2023/12/01 10:57:13;;;;;;;1.40;1.30;;;-1.20;99.90;;;;;;5114591;28;20046;-70
2023/12/01 10:59:43;;;;;;;1.60;1.50;;;-1.10;99.90;;;;;;5114546;28;20493;-70
2023/12/01 11:02:13;;;;;;;1.30;1.20;;;-1.10;99.90;;;;;;5115679;28;20036;-73
2023/12/01 11:04:42;;;;;;;1.30;1.20;;;-1.10;99.90;;;;;;5116848;28;20420;-71
2023/12/01 11:07:23;;;;;;;1.30;1.20;;;-1.10;99.90;;;;;;5114368;28;20456;-71
2023/12/01 11:09:57;;;;;;;1.50;1.40;;;-1.00;99.90;;;;;;5122093;28;20074;-70
2023/12/01 11:12:32;;;;;;;1.55;1.42;;;-1.00;99.90;;;;;;5114425;28;20048;-70
2023/12/01 11:15:08;;;;;;;6.00;2.95;;;-0.90;99.90;;;;;;5114112;28;20530;-71
2023/12/01 11:17:34;;;;;;;1.50;1.40;;;-0.90;99.90;;;;;;5114331;28;20066;-70
2023/12/01 11:20:00;;;;;;;1.40;1.30;;;-0.90;99.90;;;;;;5113882;28;20130;-70
2023/12/01 11:22:29;;;;;;;1.40;1.30;;;-0.80;99.90;;;;;;5114197;28;20091;-70
2023/12/01 11:24:56;;;;;;;2.13;2.03;;;-0.80;99.90;;;;;;5114455;28;20035;-70
2023/12/01 11:27:25;;;;;;;1.85;1.55;;;-0.70;99.90;;;;;;5113803;28;20043;-72
2023/12/01 11:30:08;;;;;;;1.40;1.30;;;-0.40;99.90;;;;;;5113769;28;20047;-70
2023/12/01 11:32:39;;;;;;;1.40;1.30;;;-0.70;99.90;;;;;;5114219;28;20043;-73
2023/12/01 11:35:10;;;;;;;1.30;1.20;;;-0.60;99.90;;;;;;5114157;28;20031;-71
2023/12/01 11:37:54;;;;;;;2.25;2.15;;;-0.60;99.90;;;;;;5116704;28;20062;-72
2023/12/01 11:40:22;;;;;;;1.30;1.20;;;-0.50;99.90;;;;;;5114109;28;20031;-71
2023/12/01 11:42:49;;;;;;;2.60;2.40;;;-0.50;99.90;;;;;;5112740;28;20062;-70
2023/12/01 11:45:15;;;;;;;1.30;1.20;;;-0.50;99.90;;;;;;5113841;28;20502;-73
2023/12/01 11:47:41;;;;;;;1.40;1.30;;;-0.50;99.90;;;;;;5114113;28;20031;-72
2023/12/01 11:50:12;;;;;;;1.30;1.20;;;-0.50;99.90;;;;;;5113402;28;20476;-72
2023/12/01 11:52:38;;;;;;;1.40;1.30;;;-0.40;99.90;;;;;;5113782;28;20195;-72
2023/12/01 11:55:14;;;;;;;1.50;1.40;;;-0.40;99.90;;;;;;5113933;28;20046;-72
2023/12/01 11:57:50;;;;;;;1.80;1.70;;;-0.30;99.90;;;;;;5113901;28;20147;-72
2023/12/01 12:00:16;;;;;;;1.20;1.10;;;-0.30;99.90;;;;;;5113806;28;20054;-72
2023/12/01 12:02:42;;;;;;;1.30;1.20;;;-0.30;99.90;;;;;;5117043;28;20040;-72
2023/12/01 12:05:08;;;;;;;1.30;1.20;;;-0.30;99.90;;;;;;5116970;28;20116;-72
2023/12/01 12:07:35;;;;;;;1.50;1.40;;;-0.30;99.90;;;;;;5117697;28;20341;-72
2023/12/01 12:10:01;;;;;;;1.40;1.30;;;-0.40;99.90;;;;;;5117826;28;20075;-71
2023/12/01 12:12:27;;;;;;;1.40;1.30;;;-0.40;99.90;;;;;;5117793;28;20040;-71
2023/12/01 12:14:55;;;;;;;1.30;1.20;;;-0.40;99.90;;;;;;5117844;28;20034;-72
2023/12/01 12:17:22;;;;;;;1.30;1.20;;;-0.50;99.90;;;;;;5117475;28;20035;-71
2023/12/01 12:19:47;;;;;;;1.40;1.30;;;-0.50;99.90;;;;;;5117610;28;20105;-71
2023/12/01 12:22:13;;;;;;;2.15;2.03;;;-0.50;99.90;;;;;;5117422;28;20503;-71
2023/12/01 12:24:44;;;;;;;1.35;1.25;;;-0.50;99.90;;;;;;5117590;28;20035;-72
2023/12/01 12:27:10;;;;;;;1.30;1.20;;;-0.60;99.90;;;;;;5117426;28;20043;-71
2023/12/01 12:29:35;;;;;;;1.92;1.83;;;-0.50;99.90;;;;;;5107855;28;20048;-70
2023/12/01 12:32:01;;;;;;;4.80;3.75;;;-0.60;99.90;;;;;;5097047;28;20036;-74
2023/12/01 12:34:27;;;;;;;1.35;1.25;;;-0.60;99.90;;;;;;5097262;28;20043;-71
2023/12/01 12:36:53;;;;;;;1.30;1.20;;;-0.60;99.90;;;;;;5097315;28;20039;-72
2023/12/01 12:39:23;;;;;;;1.30;1.20;;;-0.20;99.90;;;;;;5097024;28;20039;-74
2023/12/01 12:41:53;;;;;;;1.20;1.10;;;-0.60;99.90;;;;;;5096982;28;20411;-71
2023/12/01 12:44:19;;;;;;;1.30;1.20;;;-0.60;99.90;;;;;;5096913;28;20118;-72
2023/12/01 12:46:59;;;;;;;1.48;1.38;;;-0.60;99.90;;;;;;5096730;28;20039;-71
2023/12/01 12:49:24;;;;;;;1.50;1.40;;;-0.60;99.90;;;;;;5096391;28;20079;-71
2023/12/01 12:51:50;;;;;;;1.40;1.30;;;-0.60;99.90;;;;;;5094924;28;20121;-72